sensor_id;sensor_type;location;lat;lon;timestamp;temperature;humidity
18694;DHT22;9477;51.414;10.362;2024-01-27T00:00:45;7.90;99.90
18694;DHT22;9477;51.414;10.362;2024-01-27T00:02:48;7.80;99.90
18694;DHT22;9477;51.414;10.362;2024-01-27T00:04:52;7.90;99.90
18694;DHT22;9477;51.414;10.362;2024-01-27T00:06:54;7.90;99.90
18694;DHT22;9477;51.414;10.362;2024-01-27T00:08:57;7.70;99.90
18694;DHT22;9477;51.414;10.362;2024-01-27T00:11:00;7.80;99.90
18694;DHT22;9477;51.414;10.362;2024-01-27T00:13:03;7.90;99.90
18694;DHT22;9477;51.414;10.362;2024-01-27T00:15:07;7.90;99.90
18694;DHT22;9477;51.414;10.362;2024-01-27T00:17:09;7.90;99.90
18694;DHT22;9477;51.414;10.362;2024-01-27T00:19:12;7.90;99.90
18694;DHT22;9477;51.414;10.362;2024-01-27T00:21:17;7.90;99.90
18694;DHT22;9477;51.414;10.362;2024-01-27T00:23:18;7.90;99.90
18694;DHT22;9477;51.414;10.362;2024-01-27T00:25:21;7.70;99.90
18694;DHT22;9477;51.414;10.362;2024-01-27T00:27:24;7.80;99.90
18694;DHT22;9477;51.414;10.362;2024-01-27T00:29:27;7.80;99.90
18694;DHT22;9477;51.414;10.362;2024-01-27T00:31:30;7.70;99.90
18694;DHT22;9477;51.414;10.362;2024-01-27T00:33:32;7.70;99.90
18694;DHT22;9477;51.414;10.362;2024-01-27T00:35:37;7.80;99.90
18694;DHT22;9477;51.414;10.362;2024-01-27T00:37:42;7.70;99.90
18694;DHT22;9477;51.414;10.362;2024-01-27T00:39:44;7.70;99.90
18694;DHT22;9477;51.414;10.362;2024-01-27T00:41:47;7.80;99.90
18694;DHT22;9477;51.414;10.362;2024-01-27T00:43:50;7.60;99.90
18694;DHT22;9477;51.414;10.362;2024-01-27T00:45:53;7.60;99.90
18694;DHT22;9477;51.414;10.362;2024-01-27T00:47:56;7.50;99.90
18694;DHT22;9477;51.414;10.362;2024-01-27T00:49:59;7.60;99.90
18694;DHT22;9477;51.414;10.362;2024-01-27T00:52:03;7.60;99.90
18694;DHT22;9477;51.414;10.362;2024-01-27T00:54:07;7.60;99.90
18694;DHT22;9477;51.414;10.362;2024-01-27T00:56:09;7.60;99.90
18694;DHT22;9477;51.414;10.362;2024-01-27T00:58:12;7.60;99.90
18694;DHT22;9477;51.414;10.362;2024-01-27T01:00:16;7.70;99.90
18694;DHT22;9477;51.414;10.362;2024-01-27T01:02:18;7.60;99.90
18694;DHT22;9477;51.414;10.362;2024-01-27T01:04:21;7.70;99.90
18694;DHT22;9477;51.414;10.362;2024-01-27T01:06:23;7.70;99.90
18694;DHT22;9477;51.414;10.362;2024-01-27T01:08:26;7.80;99.90
18694;DHT22;9477;51.414;10.362;2024-01-27T01:10:30;7.80;99.90
18694;DHT22;9477;51.414;10.362;2024-01-27T01:12:33;7.90;99.90
18694;DHT22;9477;51.414;10.362;2024-01-27T01:14:36;7.80;99.90
18694;DHT22;9477;51.414;10.362;2024-01-27T01:16:40;7.90;99.90
18694;DHT22;9477;51.414;10.362;2024-01-27T01:18:43;7.90;99.90
18694;DHT22;9477;51.414;10.362;2024-01-27T01:20:46;7.90;99.90
18694;DHT22;9477;51.414;10.362;2024-01-27T01:22:49;7.90;99.90
18694;DHT22;9477;51.414;10.362;2024-01-27T01:24:52;7.90;99.90
18694;DHT22;9477;51.414;10.362;2024-01-27T01:26:56;7.90;99.90
18694;DHT22;9477;51.414;10.362;2024-01-27T01:28:59;7.80;99.90
18694;DHT22;9477;51.414;10.362;2024-01-27T01:31:02;7.90;99.90
18694;DHT22;9477;51.414;10.362;2024-01-27T01:33:04;7.90;99.90
18694;DHT22;9477;51.414;10.362;2024-01-27T01:35:07;7.90;99.90
18694;DHT22;9477;51.414;10.362;2024-01-27T01:37:09;7.90;99.90
18694;DHT22;9477;51.414;10.362;2024-01-27T01:39:12;8.10;99.90
18694;DHT22;9477;51.414;10.362;2024-01-27T01:41:15;8.00;99.90
18694;DHT22;9477;51.414;10.362;2024-01-27T01:43:19;8.00;99.90
18694;DHT22;9477;51.414;10.362;2024-01-27T01:45:21;8.00;99.90
18694;DHT22;9477;51.414;10.362;2024-01-27T01:47:24;8.00;99.90
18694;DHT22;9477;51.414;10.362;2024-01-27T01:49:27;8.20;99.90
18694;DHT22;9477;51.414;10.362;2024-01-27T01:51:30;8.20;99.90
18694;DHT22;9477;51.414;10.362;2024-01-27T01:53:32;8.30;99.90
18694;DHT22;9477;51.414;10.362;2024-01-27T01:55:35;8.30;99.90
18694;DHT22;9477;51.414;10.362;2024-01-27T01:57:38;8.20;99.90
18694;DHT22;9477;51.414;10.362;2024-01-27T01:59:41;8.20;99.90
18694;DHT22;9477;51.414;10.362;2024-01-27T02:01:44;8.10;99.90
18694;DHT22;9477;51.414;10.362;2024-01-27T02:03:52;8.20;99.90
18694;DHT22;9477;51.414;10.362;2024-01-27T02:05:55;8.10;99.90
18694;DHT22;9477;51.414;10.362;2024-01-27T02:07:58;7.90;99.90
18694;DHT22;9477;51.414;10.362;2024-01-27T02:10:03;7.90;99.90
18694;DHT22;9477;51.414;10.362;2024-01-27T02:12:07;7.90;99.90
18694;DHT22;9477;51.414;10.362;2024-01-27T02:14:10;7.90;99.90
18694;DHT22;9477;51.414;10.362;2024-01-27T02:16:15;7.80;99.90
18694;DHT22;9477;51.414;10.362;2024-01-27T02:18:19;7.90;99.90
18694;DHT22;9477;51.414;10.362;2024-01-27T02:20:22;7.90;99.90
18694;DHT22;9477;51.414;10.362;2024-01-27T02:22:25;7.70;99.90
18694;DHT22;9477;51.414;10.362;2024-01-27T02:24:29;7.80;99.90
18694;DHT22;9477;51.414;10.362;2024-01-27T02:26:32;7.80;99.90
18694;DHT22;9477;51.414;10.362;2024-01-27T02:28:35;7.90;99.90
18694;DHT22;9477;51.414;10.362;2024-01-27T02:30:38;7.80;99.90
18694;DHT22;9477;51.414;10.362;2024-01-27T02:32:41;7.90;99.90
18694;DHT22;9477;51.414;10.362;2024-01-27T02:34:43;7.80;99.90
18694;DHT22;9477;51.414;10.362;2024-01-27T02:36:46;7.90;99.90
18694;DHT22;9477;51.414;10.362;2024-01-27T02:38:48;7.80;99.90
18694;DHT22;9477;51.414;10.362;2024-01-27T02:40:52;7.80;99.90
18694;DHT22;9477;51.414;10.362;2024-01-27T02:42:55;7.80;99.90
18694;DHT22;9477;51.414;10.362;2024-01-27T02:44:57;7.90;99.90
18694;DHT22;9477;51.414;10.362;2024-01-27T02:47:00;7.90;99.90
18694;DHT22;9477;51.414;10.362;2024-01-27T02:49:03;7.80;99.90
18694;DHT22;9477;51.414;10.362;2024-01-27T02:51:06;7.90;99.90
18694;DHT22;9477;51.414;10.362;2024-01-27T02:53:09;7.60;99.90
18694;DHT22;9477;51.414;10.362;2024-01-27T02:55:12;7.70;99.90
18694;DHT22;9477;51.414;10.362;2024-01-27T02:57:15;7.70;99.90
18694;DHT22;9477;51.414;10.362;2024-01-27T02:59:18;7.70;99.90
18694;DHT22;9477;51.414;10.362;2024-01-27T03:01:21;7.70;99.90
18694;DHT22;9477;51.414;10.362;2024-01-27T03:03:24;7.40;99.90
18694;DHT22;9477;51.414;10.362;2024-01-27T03:05:27;7.50;99.90
18694;DHT22;9477;51.414;10.362;2024-01-27T03:07:30;7.60;99.90
18694;DHT22;9477;51.414;10.362;2024-01-27T03:09:33;7.60;99.90
18694;DHT22;9477;51.414;10.362;2024-01-27T03:11:36;7.60;99.90
18694;DHT22;9477;51.414;10.362;2024-01-27T03:13:40;7.60;99.90
18694;DHT22;9477;51.414;10.362;2024-01-27T03:15:46;7.60;99.90
18694;DHT22;9477;51.414;10.362;2024-01-27T03:17:49;7.50;99.90
18694;DHT22;9477;51.414;10.362;2024-01-27T03:19:52;7.50;99.90
18694;DHT22;9477;51.414;10.362;2024-01-27T03:21:55;7.50;99.90
18694;DHT22;9477;51.414;10.362;2024-01-27T03:23:57;7.50;99.90
18694;DHT22;9477;51.414;10.362;2024-01-27T03:26:02;7.50;99.90
18694;DHT22;9477;51.414;10.362;2024-01-27T03:28:05;7.60;99.90
18694;DHT22;9477;51.414;10.362;2024-01-27T03:30:09;7.60;99.90
18694;DHT22;9477;51.414;10.362;2024-01-27T03:32:12;7.50;99.90
18694;DHT22;9477;51.414;10.362;2024-01-27T03:34:15;7.60;99.90
18694;DHT22;9477;51.414;10.362;2024-01-27T03:36:19;7.60;99.90
18694;DHT22;9477;51.414;10.362;2024-01-27T03:38:22;7.50;99.90
18694;DHT22;9477;51.414;10.362;2024-01-27T03:40:25;7.60;99.90
18694;DHT22;9477;51.414;10.362;2024-01-27T03:42:28;7.60;99.90
18694;DHT22;9477;51.414;10.362;2024-01-27T03:44:30;7.50;99.90
18694;DHT22;9477;51.414;10.362;2024-01-27T03:46:34;7.50;99.90
18694;DHT22;9477;51.414;10.362;2024-01-27T03:48:39;7.60;99.90
18694;DHT22;9477;51.414;10.362;2024-01-27T03:50:42;7.60;99.90
18694;DHT22;9477;51.414;10.362;2024-01-27T03:52:44;7.70;99.90
18694;DHT22;9477;51.414;10.362;2024-01-27T03:54:47;7.70;99.90
18694;DHT22;9477;51.414;10.362;2024-01-27T03:56:50;7.60;99.90
18694;DHT22;9477;51.414;10.362;2024-01-27T03:58:54;7.60;99.90
18694;DHT22;9477;51.414;10.362;2024-01-27T04:00:56;7.70;99.90
18694;DHT22;9477;51.414;10.362;2024-01-27T04:03:04;7.60;99.90
18694;DHT22;9477;51.414;10.362;2024-01-27T04:05:07;7.60;99.90
18694;DHT22;9477;51.414;10.362;2024-01-27T04:07:10;7.50;99.90
18694;DHT22;9477;51.414;10.362;2024-01-27T04:09:13;7.40;99.90
18694;DHT22;9477;51.414;10.362;2024-01-27T04:11:21;7.30;99.90
18694;DHT22;9477;51.414;10.362;2024-01-27T04:13:24;7.30;99.90
18694;DHT22;9477;51.414;10.362;2024-01-27T04:15:27;7.30;99.90
18694;DHT22;9477;51.414;10.362;2024-01-27T04:17:30;7.40;99.90
18694;DHT22;9477;51.414;10.362;2024-01-27T04:19:34;7.60;99.90
18694;DHT22;9477;51.414;10.362;2024-01-27T04:21:38;7.70;99.90
18694;DHT22;9477;51.414;10.362;2024-01-27T04:23:40;7.70;99.90
18694;DHT22;9477;51.414;10.362;2024-01-27T04:25:42;7.80;99.90
18694;DHT22;9477;51.414;10.362;2024-01-27T04:27:45;7.80;99.90
18694;DHT22;9477;51.414;10.362;2024-01-27T04:29:48;7.80;99.90
18694;DHT22;9477;51.414;10.362;2024-01-27T04:31:51;7.80;99.90
18694;DHT22;9477;51.414;10.362;2024-01-27T04:33:54;7.80;99.90
18694;DHT22;9477;51.414;10.362;2024-01-27T04:35:58;7.90;99.90
18694;DHT22;9477;51.414;10.362;2024-01-27T04:38:01;7.90;99.90
18694;DHT22;9477;51.414;10.362;2024-01-27T04:40:05;8.00;99.90
18694;DHT22;9477;51.414;10.362;2024-01-27T04:42:08;8.10;99.90
18694;DHT22;9477;51.414;10.362;2024-01-27T04:44:11;8.20;99.90
18694;DHT22;9477;51.414;10.362;2024-01-27T04:46:13;8.00;99.90
18694;DHT22;9477;51.414;10.362;2024-01-27T04:48:16;8.00;99.90
18694;DHT22;9477;51.414;10.362;2024-01-27T04:50:19;8.00;99.90
18694;DHT22;9477;51.414;10.362;2024-01-27T04:52:23;8.00;99.90
18694;DHT22;9477;51.414;10.362;2024-01-27T04:54:25;8.10;99.90
18694;DHT22;9477;51.414;10.362;2024-01-27T04:56:27;8.00;99.90
18694;DHT22;9477;51.414;10.362;2024-01-27T04:58:30;8.00;99.90
18694;DHT22;9477;51.414;10.362;2024-01-27T05:00:33;8.00;99.90
18694;DHT22;9477;51.414;10.362;2024-01-27T05:02:36;8.00;99.90
18694;DHT22;9477;51.414;10.362;2024-01-27T05:04:39;7.80;99.90
18694;DHT22;9477;51.414;10.362;2024-01-27T05:06:43;7.70;99.90
18694;DHT22;9477;51.414;10.362;2024-01-27T05:08:48;7.60;99.90
18694;DHT22;9477;51.414;10.362;2024-01-27T05:10:51;7.70;99.90
18694;DHT22;9477;51.414;10.362;2024-01-27T05:12:57;7.50;99.90
18694;DHT22;9477;51.414;10.362;2024-01-27T05:15:01;7.40;99.90
18694;DHT22;9477;51.414;10.362;2024-01-27T05:17:03;7.10;99.90
18694;DHT22;9477;51.414;10.362;2024-01-27T05:19:06;7.00;99.90
18694;DHT22;9477;51.414;10.362;2024-01-27T05:21:09;7.10;99.90
18694;DHT22;9477;51.414;10.362;2024-01-27T05:23:12;7.20;99.90
18694;DHT22;9477;51.414;10.362;2024-01-27T05:25:16;7.30;99.90
18694;DHT22;9477;51.414;10.362;2024-01-27T05:27:18;7.40;99.90
18694;DHT22;9477;51.414;10.362;2024-01-27T05:29:21;7.40;99.90
18694;DHT22;9477;51.414;10.362;2024-01-27T05:31:25;7.50;99.90
18694;DHT22;9477;51.414;10.362;2024-01-27T05:33:27;7.50;99.90
18694;DHT22;9477;51.414;10.362;2024-01-27T05:35:30;7.60;99.90
18694;DHT22;9477;51.414;10.362;2024-01-27T05:37:33;7.00;99.90
18694;DHT22;9477;51.414;10.362;2024-01-27T05:39:35;7.10;99.90
18694;DHT22;9477;51.414;10.362;2024-01-27T05:41:39;7.30;99.90
18694;DHT22;9477;51.414;10.362;2024-01-27T05:43:42;7.50;99.90
18694;DHT22;9477;51.414;10.362;2024-01-27T05:45:44;7.50;99.90
18694;DHT22;9477;51.414;10.362;2024-01-27T05:47:47;7.60;99.90
18694;DHT22;9477;51.414;10.362;2024-01-27T05:49:50;7.70;99.90
18694;DHT22;9477;51.414;10.362;2024-01-27T05:51:53;7.80;99.90
18694;DHT22;9477;51.414;10.362;2024-01-27T05:53:54;7.90;99.90
18694;DHT22;9477;51.414;10.362;2024-01-27T05:55:57;7.90;99.90
18694;DHT22;9477;51.414;10.362;2024-01-27T05:58:01;8.00;99.90
18694;DHT22;9477;51.414;10.362;2024-01-27T06:00:05;8.00;99.90
18694;DHT22;9477;51.414;10.362;2024-01-27T06:02:11;8.10;99.90
18694;DHT22;9477;51.414;10.362;2024-01-27T06:04:14;8.00;99.90
18694;DHT22;9477;51.414;10.362;2024-01-27T06:06:17;7.90;99.90
18694;DHT22;9477;51.414;10.362;2024-01-27T06:08:20;7.90;99.90
18694;DHT22;9477;51.414;10.362;2024-01-27T06:10:22;7.90;99.90
18694;DHT22;9477;51.414;10.362;2024-01-27T06:12:26;7.90;99.90
18694;DHT22;9477;51.414;10.362;2024-01-27T06:14:30;7.80;99.90
18694;DHT22;9477;51.414;10.362;2024-01-27T06:16:33;7.90;99.90
18694;DHT22;9477;51.414;10.362;2024-01-27T06:18:37;7.90;99.90
18694;DHT22;9477;51.414;10.362;2024-01-27T06:20:40;7.90;99.90
18694;DHT22;9477;51.414;10.362;2024-01-27T06:22:43;8.00;99.90
18694;DHT22;9477;51.414;10.362;2024-01-27T06:24:45;8.10;99.90
18694;DHT22;9477;51.414;10.362;2024-01-27T06:26:47;8.00;99.90
18694;DHT22;9477;51.414;10.362;2024-01-27T06:28:50;8.10;99.90
18694;DHT22;9477;51.414;10.362;2024-01-27T06:30:53;8.10;99.90
18694;DHT22;9477;51.414;10.362;2024-01-27T06:32:56;8.00;99.90
18694;DHT22;9477;51.414;10.362;2024-01-27T06:34:59;8.00;99.90
18694;DHT22;9477;51.414;10.362;2024-01-27T06:37:02;8.00;99.90
18694;DHT22;9477;51.414;10.362;2024-01-27T06:39:04;8.00;99.90
18694;DHT22;9477;51.414;10.362;2024-01-27T06:41:07;8.00;99.90
18694;DHT22;9477;51.414;10.362;2024-01-27T06:43:12;8.00;99.90
18694;DHT22;9477;51.414;10.362;2024-01-27T06:45:15;8.00;99.90
18694;DHT22;9477;51.414;10.362;2024-01-27T06:47:21;8.00;99.90
18694;DHT22;9477;51.414;10.362;2024-01-27T06:49:23;8.00;99.90
18694;DHT22;9477;51.414;10.362;2024-01-27T06:51:26;7.90;99.90
18694;DHT22;9477;51.414;10.362;2024-01-27T06:53:29;8.00;99.90
18694;DHT22;9477;51.414;10.362;2024-01-27T06:55:32;8.00;99.90
18694;DHT22;9477;51.414;10.362;2024-01-27T06:57:35;8.00;99.90
18694;DHT22;9477;51.414;10.362;2024-01-27T06:59:36;7.90;99.90
18694;DHT22;9477;51.414;10.362;2024-01-27T07:01:45;7.80;99.90
18694;DHT22;9477;51.414;10.362;2024-01-27T07:03:51;7.70;99.90
18694;DHT22;9477;51.414;10.362;2024-01-27T07:05:54;7.70;99.90
18694;DHT22;9477;51.414;10.362;2024-01-27T07:07:56;7.60;99.90
18694;DHT22;9477;51.414;10.362;2024-01-27T07:09:59;7.60;99.90
18694;DHT22;9477;51.414;10.362;2024-01-27T07:12:02;7.70;99.90
18694;DHT22;9477;51.414;10.362;2024-01-27T07:14:05;7.70;99.90
18694;DHT22;9477;51.414;10.362;2024-01-27T07:16:08;7.70;99.90
18694;DHT22;9477;51.414;10.362;2024-01-27T07:18:11;7.60;99.90
18694;DHT22;9477;51.414;10.362;2024-01-27T07:20:15;7.60;99.90
18694;DHT22;9477;51.414;10.362;2024-01-27T07:22:19;7.60;99.90
18694;DHT22;9477;51.414;10.362;2024-01-27T07:24:22;7.60;99.90
18694;DHT22;9477;51.414;10.362;2024-01-27T07:26:24;7.50;99.90
18694;DHT22;9477;51.414;10.362;2024-01-27T07:28:27;7.30;99.90
18694;DHT22;9477;51.414;10.362;2024-01-27T07:30:30;7.30;99.90
18694;DHT22;9477;51.414;10.362;2024-01-27T07:32:33;7.20;99.90
18694;DHT22;9477;51.414;10.362;2024-01-27T07:34:36;7.20;99.90
18694;DHT22;9477;51.414;10.362;2024-01-27T07:36:40;7.10;99.90
18694;DHT22;9477;51.414;10.362;2024-01-27T07:38:43;7.10;99.90
18694;DHT22;9477;51.414;10.362;2024-01-27T07:40:46;7.10;99.90
18694;DHT22;9477;51.414;10.362;2024-01-27T07:42:49;7.10;99.90
18694;DHT22;9477;51.414;10.362;2024-01-27T07:44:50;7.10;99.90
18694;DHT22;9477;51.414;10.362;2024-01-27T07:46:53;7.10;99.90
18694;DHT22;9477;51.414;10.362;2024-01-27T07:48:56;7.10;99.90
18694;DHT22;9477;51.414;10.362;2024-01-27T07:50:59;7.20;99.90
18694;DHT22;9477;51.414;10.362;2024-01-27T07:53:06;7.20;99.90
18694;DHT22;9477;51.414;10.362;2024-01-27T07:55:09;7.10;99.90
18694;DHT22;9477;51.414;10.362;2024-01-27T07:57:12;7.10;99.90
18694;DHT22;9477;51.414;10.362;2024-01-27T07:59:15;7.10;99.90
18694;DHT22;9477;51.414;10.362;2024-01-27T08:01:19;7.10;99.90
18694;DHT22;9477;51.414;10.362;2024-01-27T08:03:22;7.10;99.90
18694;DHT22;9477;51.414;10.362;2024-01-27T08:05:25;7.10;99.90
18694;DHT22;9477;51.414;10.362;2024-01-27T08:07:27;7.00;99.90
18694;DHT22;9477;51.414;10.362;2024-01-27T08:09:31;7.10;99.90
18694;DHT22;9477;51.414;10.362;2024-01-27T08:11:33;6.90;99.90
18694;DHT22;9477;51.414;10.362;2024-01-27T08:13:36;7.00;99.90
18694;DHT22;9477;51.414;10.362;2024-01-27T08:15:39;6.90;99.90
18694;DHT22;9477;51.414;10.362;2024-01-27T08:17:42;6.90;99.90
18694;DHT22;9477;51.414;10.362;2024-01-27T08:19:45;6.80;99.90
18694;DHT22;9477;51.414;10.362;2024-01-27T08:21:47;6.90;99.90
18694;DHT22;9477;51.414;10.362;2024-01-27T08:23:50;6.90;99.90
18694;DHT22;9477;51.414;10.362;2024-01-27T08:25:54;6.80;99.90
18694;DHT22;9477;51.414;10.362;2024-01-27T08:27:57;6.90;99.90
18694;DHT22;9477;51.414;10.362;2024-01-27T08:30:00;6.90;99.90
18694;DHT22;9477;51.414;10.362;2024-01-27T08:32:03;6.90;99.90
18694;DHT22;9477;51.414;10.362;2024-01-27T08:34:06;7.00;99.90
18694;DHT22;9477;51.414;10.362;2024-01-27T08:36:13;7.00;99.90
18694;DHT22;9477;51.414;10.362;2024-01-27T08:38:16;7.00;99.90
18694;DHT22;9477;51.414;10.362;2024-01-27T08:40:19;7.10;99.90
18694;DHT22;9477;51.414;10.362;2024-01-27T08:42:23;7.10;99.90
18694;DHT22;9477;51.414;10.362;2024-01-27T08:44:26;7.20;99.90
18694;DHT22;9477;51.414;10.362;2024-01-27T08:46:29;7.30;99.90
18694;DHT22;9477;51.414;10.362;2024-01-27T08:48:32;7.40;99.90
18694;DHT22;9477;51.414;10.362;2024-01-27T08:50:35;7.50;99.90
18694;DHT22;9477;51.414;10.362;2024-01-27T08:52:38;7.50;99.90
18694;DHT22;9477;51.414;10.362;2024-01-27T08:54:40;7.50;99.90
18694;DHT22;9477;51.414;10.362;2024-01-27T08:56:43;7.40;99.90
18694;DHT22;9477;51.414;10.362;2024-01-27T08:58:47;7.30;99.90
18694;DHT22;9477;51.414;10.362;2024-01-27T09:00:50;7.50;99.90
18694;DHT22;9477;51.414;10.362;2024-01-27T09:02:53;7.50;99.90
18694;DHT22;9477;51.414;10.362;2024-01-27T09:04:56;7.60;99.90
18694;DHT22;9477;51.414;10.362;2024-01-27T09:06:58;7.80;99.90
18694;DHT22;9477;51.414;10.362;2024-01-27T09:09:01;7.90;99.90
18694;DHT22;9477;51.414;10.362;2024-01-27T09:11:04;8.00;99.90
18694;DHT22;9477;51.414;10.362;2024-01-27T09:13:08;8.00;99.90
18694;DHT22;9477;51.414;10.362;2024-01-27T09:15:12;8.00;99.90
18694;DHT22;9477;51.414;10.362;2024-01-27T09:17:15;8.00;99.90
18694;DHT22;9477;51.414;10.362;2024-01-27T09:19:18;7.90;99.90
18694;DHT22;9477;51.414;10.362;2024-01-27T09:21:21;8.00;99.90
18694;DHT22;9477;51.414;10.362;2024-01-27T09:23:29;8.00;99.90
18694;DHT22;9477;51.414;10.362;2024-01-27T09:25:32;8.00;99.90
18694;DHT22;9477;51.414;10.362;2024-01-27T09:27:35;8.10;99.90
18694;DHT22;9477;51.414;10.362;2024-01-27T09:29:38;8.20;99.90
18694;DHT22;9477;51.414;10.362;2024-01-27T09:31:43;8.10;99.90
18694;DHT22;9477;51.414;10.362;2024-01-27T09:33:45;8.20;99.90
18694;DHT22;9477;51.414;10.362;2024-01-27T09:35:48;8.30;99.90
18694;DHT22;9477;51.414;10.362;2024-01-27T09:37:51;8.30;99.90
18694;DHT22;9477;51.414;10.362;2024-01-27T09:39:54;8.30;99.90
18694;DHT22;9477;51.414;10.362;2024-01-27T09:41:56;8.40;99.90
18694;DHT22;9477;51.414;10.362;2024-01-27T09:44:01;8.50;99.90
18694;DHT22;9477;51.414;10.362;2024-01-27T09:46:04;8.60;99.90
18694;DHT22;9477;51.414;10.362;2024-01-27T09:48:10;8.60;99.90
18694;DHT22;9477;51.414;10.362;2024-01-27T09:50:14;8.50;99.90
18694;DHT22;9477;51.414;10.362;2024-01-27T09:52:19;8.60;99.90
18694;DHT22;9477;51.414;10.362;2024-01-27T09:54:23;8.60;99.90
18694;DHT22;9477;51.414;10.362;2024-01-27T09:56:26;8.60;99.90
18694;DHT22;9477;51.414;10.362;2024-01-27T09:58:30;8.50;99.90
18694;DHT22;9477;51.414;10.362;2024-01-27T10:00:35;8.60;99.90
18694;DHT22;9477;51.414;10.362;2024-01-27T10:02:39;8.60;99.90
18694;DHT22;9477;51.414;10.362;2024-01-27T10:04:48;8.60;99.90
18694;DHT22;9477;51.414;10.362;2024-01-27T10:06:52;8.50;99.90
18694;DHT22;9477;51.414;10.362;2024-01-27T10:08:55;8.60;99.90
18694;DHT22;9477;51.414;10.362;2024-01-27T10:10:59;8.70;99.90
18694;DHT22;9477;51.414;10.362;2024-01-27T10:13:04;8.60;99.90
18694;DHT22;9477;51.414;10.362;2024-01-27T10:15:18;8.70;99.90
18694;DHT22;9477;51.414;10.362;2024-01-27T10:17:22;8.70;99.90
18694;DHT22;9477;51.414;10.362;2024-01-27T10:19:26;8.70;99.90
18694;DHT22;9477;51.414;10.362;2024-01-27T10:21:31;8.70;99.90
18694;DHT22;9477;51.414;10.362;2024-01-27T10:23:38;8.80;99.90
18694;DHT22;9477;51.414;10.362;2024-01-27T10:25:41;8.70;99.90
18694;DHT22;9477;51.414;10.362;2024-01-27T10:27:44;8.70;99.90
18694;DHT22;9477;51.414;10.362;2024-01-27T10:29:52;8.80;99.90
18694;DHT22;9477;51.414;10.362;2024-01-27T10:31:55;8.80;99.90
18694;DHT22;9477;51.414;10.362;2024-01-27T10:33:59;8.90;99.90
18694;DHT22;9477;51.414;10.362;2024-01-27T10:36:04;8.80;99.90
18694;DHT22;9477;51.414;10.362;2024-01-27T10:38:09;8.80;99.90
18694;DHT22;9477;51.414;10.362;2024-01-27T10:40:12;8.80;99.90
18694;DHT22;9477;51.414;10.362;2024-01-27T10:42:18;8.90;99.90
18694;DHT22;9477;51.414;10.362;2024-01-27T10:44:21;8.90;99.90
18694;DHT22;9477;51.414;10.362;2024-01-27T10:46:25;9.00;99.90
18694;DHT22;9477;51.414;10.362;2024-01-27T10:48:28;9.10;99.90
18694;DHT22;9477;51.414;10.362;2024-01-27T10:50:35;9.10;99.90
18694;DHT22;9477;51.414;10.362;2024-01-27T10:52:44;9.10;99.90
18694;DHT22;9477;51.414;10.362;2024-01-27T10:54:51;9.10;99.90
18694;DHT22;9477;51.414;10.362;2024-01-27T10:56:56;9.10;99.90
18694;DHT22;9477;51.414;10.362;2024-01-27T10:59:01;8.80;99.90
18694;DHT22;9477;51.414;10.362;2024-01-27T11:01:09;8.80;99.90
18694;DHT22;9477;51.414;10.362;2024-01-27T11:03:11;8.90;99.90
18694;DHT22;9477;51.414;10.362;2024-01-27T11:05:15;8.90;99.90
18694;DHT22;9477;51.414;10.362;2024-01-27T11:07:19;9.00;99.90
18694;DHT22;9477;51.414;10.362;2024-01-27T11:09:23;8.90;99.90
18694;DHT22;9477;51.414;10.362;2024-01-27T11:11:28;9.10;99.90
18694;DHT22;9477;51.414;10.362;2024-01-27T11:13:32;9.30;99.90
18694;DHT22;9477;51.414;10.362;2024-01-27T11:15:35;9.30;99.90
18694;DHT22;9477;51.414;10.362;2024-01-27T11:17:39;9.40;99.90
18694;DHT22;9477;51.414;10.362;2024-01-27T11:19:42;9.30;99.90
18694;DHT22;9477;51.414;10.362;2024-01-27T11:21:45;9.30;99.90
18694;DHT22;9477;51.414;10.362;2024-01-27T11:23:47;9.20;99.90
18694;DHT22;9477;51.414;10.362;2024-01-27T11:25:50;9.30;99.90
18694;DHT22;9477;51.414;10.362;2024-01-27T11:27:54;9.30;99.90
18694;DHT22;9477;51.414;10.362;2024-01-27T11:29:57;9.40;99.90
18694;DHT22;9477;51.414;10.362;2024-01-27T11:32:00;9.30;99.90
18694;DHT22;9477;51.414;10.362;2024-01-27T11:34:03;9.40;99.90
18694;DHT22;9477;51.414;10.362;2024-01-27T11:36:06;9.40;99.90
18694;DHT22;9477;51.414;10.362;2024-01-27T11:38:10;9.40;99.90
18694;DHT22;9477;51.414;10.362;2024-01-27T11:40:13;9.50;99.90
18694;DHT22;9477;51.414;10.362;2024-01-27T11:42:17;9.50;99.90
18694;DHT22;9477;51.414;10.362;2024-01-27T11:44:22;9.60;99.90
18694;DHT22;9477;51.414;10.362;2024-01-27T11:46:25;9.50;99.90
18694;DHT22;9477;51.414;10.362;2024-01-27T11:48:28;9.50;99.90
18694;DHT22;9477;51.414;10.362;2024-01-27T11:50:31;9.40;99.90
18694;DHT22;9477;51.414;10.362;2024-01-27T11:52:34;9.30;99.90
18694;DHT22;9477;51.414;10.362;2024-01-27T11:54:37;9.20;99.90
18694;DHT22;9477;51.414;10.362;2024-01-27T11:56:40;9.30;99.90
18694;DHT22;9477;51.414;10.362;2024-01-27T11:58:46;9.40;99.90
18694;DHT22;9477;51.414;10.362;2024-01-27T12:00:50;9.30;99.90
18694;DHT22;9477;51.414;10.362;2024-01-27T12:02:53;9.40;99.90
18694;DHT22;9477;51.414;10.362;2024-01-27T12:04:56;9.50;99.90
18694;DHT22;9477;51.414;10.362;2024-01-27T12:06:59;9.70;99.90
18694;DHT22;9477;51.414;10.362;2024-01-27T12:09:02;9.90;99.90
18694;DHT22;9477;51.414;10.362;2024-01-27T12:11:05;9.70;99.90
18694;DHT22;9477;51.414;10.362;2024-01-27T12:13:07;9.80;99.90
18694;DHT22;9477;51.414;10.362;2024-01-27T12:15:10;9.90;99.90
18694;DHT22;9477;51.414;10.362;2024-01-27T12:17:16;9.80;99.90
18694;DHT22;9477;51.414;10.362;2024-01-27T12:19:19;9.80;99.90
18694;DHT22;9477;51.414;10.362;2024-01-27T12:21:22;9.90;99.90
18694;DHT22;9477;51.414;10.362;2024-01-27T12:23:26;9.70;99.90
18694;DHT22;9477;51.414;10.362;2024-01-27T12:25:29;9.70;99.90
18694;DHT22;9477;51.414;10.362;2024-01-27T12:27:32;9.70;99.90
18694;DHT22;9477;51.414;10.362;2024-01-27T12:29:35;9.80;99.90
18694;DHT22;9477;51.414;10.362;2024-01-27T12:31:38;9.90;99.90
18694;DHT22;9477;51.414;10.362;2024-01-27T12:33:49;9.90;99.90
18694;DHT22;9477;51.414;10.362;2024-01-27T12:35:53;9.90;99.90
18694;DHT22;9477;51.414;10.362;2024-01-27T12:37:59;9.80;99.90
18694;DHT22;9477;51.414;10.362;2024-01-27T12:40:17;9.70;99.90
18694;DHT22;9477;51.414;10.362;2024-01-27T12:42:25;10.00;99.90
18694;DHT22;9477;51.414;10.362;2024-01-27T12:44:27;9.90;99.90
18694;DHT22;9477;51.414;10.362;2024-01-27T12:46:29;9.90;99.90
18694;DHT22;9477;51.414;10.362;2024-01-27T12:48:33;9.90;99.90
18694;DHT22;9477;51.414;10.362;2024-01-27T12:50:37;10.00;99.60
18694;DHT22;9477;51.414;10.362;2024-01-27T12:52:40;10.00;99.80
18694;DHT22;9477;51.414;10.362;2024-01-27T12:54:43;10.10;99.70
18694;DHT22;9477;51.414;10.362;2024-01-27T12:56:46;10.10;99.60
18694;DHT22;9477;51.414;10.362;2024-01-27T12:58:49;10.10;99.40
18694;DHT22;9477;51.414;10.362;2024-01-27T13:00:52;10.10;99.50
18694;DHT22;9477;51.414;10.362;2024-01-27T13:02:54;10.10;99.60
18694;DHT22;9477;51.414;10.362;2024-01-27T13:04:57;9.80;99.50
18694;DHT22;9477;51.414;10.362;2024-01-27T13:07:01;9.90;99.50
18694;DHT22;9477;51.414;10.362;2024-01-27T13:09:04;9.90;99.60
18694;DHT22;9477;51.414;10.362;2024-01-27T13:11:07;10.00;99.10